Newhaven, United Kingdom
Current Conditions -  °F | °C
As of 6:20 AM on Thursday 27 Nov 2014 (Local Time) from EGKK Reporting Station
Haze Haze  
Wind Chill: 46°   Ceiling: 200
Heat Index: 48°   Visibility: 0.68mi
Dew Point: 48°   Wind: 5mph
Humidity: 100%   Direction: 230°SW
Pressure: 29.62"   Gusts: NA
Location:  50.8°N, 0.06°E
Report Text: EGKK 270620Z 23004KT 1100 R08R/P1500 BR OVC002 09/09 Q1003
Loading
Personal Weather Stations






























Interactive Weather Map New forecast layout! Learn more

10-Day Weather Forecast

Advertisements
Track Severe Weather on mobile